createdAt,value
2022-09-30T00:01:37.574Z,13.06
2022-09-30T00:04:06.272Z,13.02
2022-09-30T00:06:36.416Z,12.90
2022-09-30T00:09:05.666Z,12.82
2022-09-30T00:11:39.440Z,12.82
2022-09-30T00:14:09.309Z,12.92
2022-09-30T00:16:38.703Z,12.97
2022-09-30T00:19:07.334Z,13.03
2022-09-30T00:21:36.017Z,12.99
2022-09-30T00:24:05.934Z,12.82
2022-09-30T00:26:35.130Z,12.51
2022-09-30T00:29:06.113Z,12.43
2022-09-30T00:31:36.403Z,12.49
2022-09-30T00:34:08.816Z,12.49
2022-09-30T00:36:40.642Z,12.59
2022-09-30T00:39:11.219Z,12.59
2022-09-30T00:41:40.038Z,12.62
2022-09-30T00:44:51.010Z,12.68
2022-09-30T00:47:47.573Z,12.67
2022-09-30T00:50:46.241Z,12.66
2022-09-30T00:53:19.512Z,12.72
2022-09-30T00:55:53.258Z,12.73
2022-09-30T00:58:27.268Z,12.71
2022-09-30T01:00:58.332Z,12.83
2022-09-30T01:03:27.693Z,12.83
2022-09-30T01:05:56.810Z,12.86
2022-09-30T01:08:26.262Z,12.87
2022-09-30T01:10:54.877Z,12.86
2022-09-30T01:13:27.761Z,12.62
2022-09-30T01:16:19.003Z,12.51
2022-09-30T01:19:06.368Z,12.55
2022-09-30T01:22:07.743Z,12.58
2022-09-30T01:25:05.540Z,12.64
2022-09-30T01:27:48.942Z,12.67
2022-09-30T01:30:23.034Z,12.71
2022-09-30T01:33:11.918Z,12.76
2022-09-30T01:35:53.696Z,12.74
2022-09-30T01:38:30.831Z,12.74
2022-09-30T01:41:08.113Z,12.64
2022-09-30T01:43:46.362Z,12.60
2022-09-30T01:46:22.968Z,12.44
2022-09-30T01:49:05.150Z,12.52
2022-09-30T01:51:39.757Z,12.44
2022-09-30T01:54:18.660Z,12.35
2022-09-30T01:56:51.314Z,12.35
2022-09-30T01:59:26.548Z,12.36
2022-09-30T02:02:00.053Z,12.20
2022-09-30T02:04:37.635Z,11.98
2022-09-30T02:07:10.565Z,11.98
2022-09-30T02:09:44.425Z,11.99
2022-09-30T02:12:17.530Z,12.07
2022-09-30T02:14:50.260Z,11.98
2022-09-30T02:17:24.915Z,12.00
2022-09-30T02:20:01.142Z,11.93
2022-09-30T02:22:33.259Z,11.91
2022-09-30T02:25:04.730Z,11.91
2022-09-30T02:27:42.764Z,11.73
2022-09-30T02:30:13.962Z,11.39
2022-09-30T02:32:46.542Z,11.33
2022-09-30T02:35:21.409Z,11.45
2022-09-30T02:37:54.064Z,11.53
2022-09-30T02:40:28.967Z,11.58
2022-09-30T02:42:58.298Z,11.45
2022-09-30T02:45:27.065Z,11.38
2022-09-30T02:48:10.757Z,11.02
2022-09-30T02:50:48.365Z,10.83
2022-09-30T02:53:25.669Z,11.00
2022-09-30T02:56:14.001Z,11.11
2022-09-30T02:58:44.874Z,11.18
2022-09-30T03:01:16.104Z,11.20
2022-09-30T03:03:47.902Z,11.27
2022-09-30T03:06:18.621Z,11.33
2022-09-30T03:08:47.424Z,11.31
2022-09-30T03:11:20.429Z,11.14
2022-09-30T03:14:22.377Z,10.91
2022-09-30T03:17:11.230Z,10.95
2022-09-30T03:19:59.620Z,11.04
2022-09-30T03:22:48.194Z,10.90
2022-09-30T03:25:25.350Z,10.95
2022-09-30T03:28:06.153Z,10.96
2022-09-30T03:30:39.638Z,11.00
2022-09-30T03:33:11.846Z,10.98
2022-09-30T03:35:50.518Z,10.78
2022-09-30T03:38:31.252Z,10.47
2022-09-30T03:41:08.539Z,10.28
2022-09-30T03:43:39.885Z,10.22
2022-09-30T03:46:13.617Z,10.37
2022-09-30T03:48:44.328Z,10.44
2022-09-30T03:51:13.733Z,10.44
2022-09-30T03:53:46.702Z,10.43
2022-09-30T03:56:15.561Z,10.37
2022-09-30T03:58:45.633Z,10.31
2022-09-30T04:04:23.678Z,10.27
2022-09-30T04:06:52.685Z,10.35
2022-09-30T04:09:22.748Z,10.25
2022-09-30T04:11:51.624Z,10.18
2022-09-30T04:14:20.027Z,10.17
2022-09-30T04:16:51.880Z,10.28
2022-09-30T04:19:22.458Z,10.34
2022-09-30T04:21:53.233Z,10.36
2022-09-30T04:24:24.682Z,10.39
2022-09-30T04:26:53.281Z,10.16
2022-09-30T04:29:21.790Z,10.23
2022-09-30T04:31:50.384Z,10.25
2022-09-30T04:34:18.865Z,10.25
2022-09-30T04:36:47.296Z,10.29
2022-09-30T04:39:15.716Z,10.32
2022-09-30T04:41:45.580Z,10.23
2022-09-30T04:44:14.022Z,10.05
2022-09-30T04:46:43.329Z,10.04
2022-09-30T04:49:12.314Z,10.02
2022-09-30T04:51:44.090Z,10.06
2022-09-30T04:54:12.645Z,9.99
2022-09-30T04:56:41.094Z,9.93
2022-09-30T04:59:11.025Z,9.77
2022-09-30T05:01:40.530Z,9.67
2022-09-30T05:04:09.016Z,9.60
2022-09-30T05:06:37.595Z,9.56
2022-09-30T05:09:06.544Z,9.66
2022-09-30T05:11:35.402Z,9.65
2022-09-30T05:14:09.004Z,9.79
2022-09-30T05:16:38.883Z,9.90
2022-09-30T05:19:07.338Z,9.87
2022-09-30T05:21:35.828Z,9.81
2022-09-30T05:24:04.485Z,9.63
2022-09-30T05:26:33.093Z,9.65
2022-09-30T05:29:01.809Z,9.65
2022-09-30T05:31:30.384Z,9.74
2022-09-30T05:34:00.443Z,9.85
2022-09-30T05:36:29.043Z,9.81
2022-09-30T05:38:57.483Z,9.64
2022-09-30T05:41:25.941Z,9.40
2022-09-30T05:43:54.581Z,9.52
2022-09-30T05:46:23.028Z,9.55
2022-09-30T05:48:54.759Z,9.62
2022-09-30T05:51:24.752Z,9.60
2022-09-30T05:53:53.216Z,9.55
2022-09-30T05:56:21.685Z,9.64
2022-09-30T05:58:50.994Z,9.63
2022-09-30T06:01:19.424Z,9.69
2022-09-30T06:03:48.152Z,9.66
2022-09-30T06:06:17.309Z,9.60
2022-09-30T06:08:47.145Z,9.62
2022-09-30T06:11:19.029Z,9.61
2022-09-30T06:13:48.919Z,9.57
2022-09-30T06:16:18.540Z,9.51
2022-09-30T06:18:47.566Z,9.50
2022-09-30T06:21:18.162Z,9.59
2022-09-30T06:23:48.035Z,9.63
2022-09-30T06:26:16.845Z,9.69
2022-09-30T06:28:45.403Z,9.72
2022-09-30T06:31:14.862Z,9.62
2022-09-30T06:33:43.708Z,9.55
2022-09-30T06:36:12.150Z,9.47
2022-09-30T06:38:40.705Z,9.53
2022-09-30T06:41:11.076Z,9.58
2022-09-30T06:43:54.069Z,9.66
2022-09-30T06:46:30.307Z,9.75
2022-09-30T06:49:11.441Z,9.59
2022-09-30T06:51:42.253Z,9.47
2022-09-30T06:54:11.382Z,9.46
2022-09-30T06:56:42.011Z,9.61
2022-09-30T06:59:11.069Z,9.63
2022-09-30T07:01:39.613Z,9.65
2022-09-30T07:04:10.133Z,9.73
2022-09-30T07:06:39.662Z,9.72
2022-09-30T07:09:09.060Z,9.81
2022-09-30T07:11:38.580Z,9.95
2022-09-30T07:14:10.364Z,10.04
2022-09-30T07:16:39.043Z,10.10
2022-09-30T07:19:10.336Z,10.31
2022-09-30T07:21:38.905Z,10.34
2022-09-30T07:24:09.416Z,10.38
2022-09-30T07:26:38.022Z,10.57
2022-09-30T07:29:07.338Z,10.64
2022-09-30T07:31:37.347Z,10.73
2022-09-30T07:34:08.446Z,10.93
2022-09-30T07:36:38.672Z,11.01
2022-09-30T07:39:10.469Z,11.07
2022-09-30T07:41:40.766Z,11.29
2022-09-30T07:44:14.743Z,11.38
2022-09-30T07:46:45.883Z,11.40
2022-09-30T07:49:16.253Z,11.75
2022-09-30T07:51:45.749Z,12.00
2022-09-30T07:54:17.329Z,12.50
2022-09-30T07:59:37.536Z,13.72
2022-09-30T08:02:08.823Z,16.00
2022-09-30T08:04:41.591Z,19.99
2022-09-30T08:07:12.639Z,23.24
2022-09-30T08:09:41.291Z,25.36
2022-09-30T08:12:10.526Z,25.99
2022-09-30T08:14:39.092Z,25.70
2022-09-30T08:17:09.075Z,28.46
2022-09-30T08:19:38.303Z,28.63
2022-09-30T08:22:07.531Z,30.00
2022-09-30T08:24:36.015Z,29.29
2022-09-30T08:27:04.677Z,28.21
2022-09-30T08:29:53.755Z,28.46
2022-09-30T08:32:23.058Z,27.76
2022-09-30T08:34:51.490Z,29.13
2022-09-30T08:37:19.985Z,29.48
2022-09-30T08:39:48.819Z,29.17
2022-09-30T08:42:37.727Z,28.63
2022-09-30T08:45:18.508Z,30.42
2022-09-30T08:47:56.296Z,30.15
2022-09-30T08:50:32.015Z,32.58
2022-09-30T08:53:04.486Z,34.25
2022-09-30T08:55:40.979Z,34.73
2022-09-30T08:58:18.056Z,37.34
2022-09-30T09:00:46.956Z,37.89
2022-09-30T09:03:20.586Z,38.52
2022-09-30T09:05:56.827Z,38.84
2022-09-30T09:08:34.996Z,37.60
2022-09-30T09:11:09.138Z,37.33
2022-09-30T09:13:51.282Z,37.75
2022-09-30T09:16:25.655Z,39.17
2022-09-30T09:19:00.469Z,39.16
2022-09-30T09:21:41.625Z,39.86
2022-09-30T09:24:17.354Z,39.70
2022-09-30T09:26:46.130Z,39.27
2022-09-30T09:29:27.214Z,38.96
2022-09-30T09:31:56.258Z,40.01
2022-09-30T09:34:27.187Z,40.79
2022-09-30T09:37:12.669Z,40.35
2022-09-30T09:40:08.884Z,40.10
2022-09-30T09:42:58.742Z,38.80
2022-09-30T09:45:36.678Z,39.07
2022-09-30T09:48:09.686Z,39.83
2022-09-30T09:50:48.443Z,40.22
2022-09-30T09:53:43.669Z,40.49
2022-09-30T09:56:19.047Z,39.44
2022-09-30T09:59:09.793Z,39.27
2022-09-30T10:01:40.829Z,39.64
2022-09-30T10:04:16.692Z,37.68
2022-09-30T10:06:52.727Z,39.72
2022-09-30T10:09:33.305Z,39.16
2022-09-30T10:12:29.784Z,39.81
2022-09-30T10:15:02.162Z,37.83
2022-09-30T10:17:34.259Z,39.07
2022-09-30T10:20:08.180Z,38.34
2022-09-30T10:22:39.204Z,40.35
2022-09-30T10:25:22.968Z,39.34
2022-09-30T10:27:54.863Z,38.21
2022-09-30T10:30:36.855Z,39.09
2022-09-30T10:33:05.470Z,37.77
2022-09-30T10:35:34.351Z,38.57
2022-09-30T10:38:04.291Z,38.45
2022-09-30T10:40:32.736Z,38.27
2022-09-30T10:43:01.308Z,38.05
2022-09-30T10:45:37.032Z,38.49
2022-09-30T10:48:15.796Z,39.35
2022-09-30T10:50:52.460Z,38.65
2022-09-30T10:53:25.753Z,38.51
2022-09-30T10:55:54.699Z,38.93
2022-09-30T10:58:29.735Z,38.75
2022-09-30T11:01:04.638Z,38.98
2022-09-30T11:03:39.862Z,36.94
2022-09-30T11:06:13.609Z,36.80
2022-09-30T11:08:50.098Z,36.86
2022-09-30T11:11:27.341Z,35.87
2022-09-30T11:13:58.675Z,36.47
2022-09-30T11:16:34.663Z,36.95
2022-09-30T11:19:10.225Z,38.85
2022-09-30T11:21:46.516Z,39.59
2022-09-30T11:24:27.271Z,39.73
2022-09-30T11:27:03.665Z,38.25
2022-09-30T11:29:48.506Z,38.03
2022-09-30T11:32:27.325Z,35.16
2022-09-30T11:35:05.374Z,37.55
2022-09-30T11:37:50.707Z,36.35
2022-09-30T11:40:38.343Z,37.09
2022-09-30T11:43:22.378Z,36.38
2022-09-30T11:46:07.617Z,34.84
2022-09-30T11:48:52.134Z,34.48
2022-09-30T11:51:30.250Z,34.18
2022-09-30T11:54:12.933Z,36.19
2022-09-30T11:56:51.960Z,36.39
2022-09-30T11:59:25.459Z,35.56
2022-09-30T12:01:56.227Z,36.17
2022-09-30T12:04:31.647Z,36.69
2022-09-30T12:07:05.669Z,36.43
2022-09-30T12:09:38.833Z,33.91
2022-09-30T12:12:16.542Z,34.90
2022-09-30T12:14:48.511Z,34.55
2022-09-30T12:17:28.344Z,34.36
2022-09-30T12:19:59.634Z,34.65
2022-09-30T12:22:31.926Z,34.65
2022-09-30T12:25:02.033Z,31.93
2022-09-30T12:27:39.127Z,29.51
2022-09-30T12:30:17.888Z,27.57
2022-09-30T12:33:18.068Z,25.99
2022-09-30T12:36:24.844Z,26.00
2022-09-30T12:39:28.133Z,25.86
2022-09-30T12:42:15.014Z,25.64
2022-09-30T12:45:00.702Z,25.57
2022-09-30T12:47:38.845Z,25.62
2022-09-30T12:50:10.165Z,25.33
2022-09-30T12:52:39.777Z,25.43
2022-09-30T12:55:20.025Z,25.45
2022-09-30T12:57:50.905Z,24.56
2022-09-30T13:00:22.836Z,24.39
2022-09-30T13:02:58.169Z,24.82
2022-09-30T13:05:48.476Z,23.86
2022-09-30T13:08:43.224Z,23.43
2022-09-30T13:11:33.565Z,22.62
2022-09-30T13:14:16.135Z,22.32
2022-09-30T13:17:24.438Z,22.41
2022-09-30T13:19:54.653Z,22.90
2022-09-30T13:22:59.380Z,23.38
2022-09-30T13:25:28.625Z,24.00
2022-09-30T13:28:29.954Z,24.44
2022-09-30T13:31:19.201Z,24.54
2022-09-30T13:34:10.746Z,24.76
2022-09-30T13:36:57.947Z,24.88
2022-09-30T13:39:31.736Z,24.94
2022-09-30T13:42:08.455Z,24.90
2022-09-30T13:44:46.176Z,25.11
2022-09-30T13:47:23.507Z,25.13
2022-09-30T13:50:01.465Z,24.19
2022-09-30T13:52:32.952Z,24.33
2022-09-30T13:55:09.658Z,24.43
2022-09-30T13:57:49.159Z,24.62
2022-09-30T14:00:20.302Z,24.53
2022-09-30T14:03:14.355Z,24.61
2022-09-30T14:05:53.806Z,24.48
2022-09-30T14:08:42.358Z,24.59
2022-09-30T14:11:28.199Z,24.66
2022-09-30T14:14:14.838Z,24.42
2022-09-30T14:17:12.493Z,24.19
2022-09-30T14:20:05.170Z,24.22
2022-09-30T14:22:37.756Z,24.15
2022-09-30T14:25:14.767Z,24.36
2022-09-30T14:28:04.576Z,24.20
2022-09-30T14:30:40.397Z,24.15
2022-09-30T14:33:17.888Z,24.18
2022-09-30T14:35:46.633Z,24.02
2022-09-30T14:38:22.426Z,24.03
2022-09-30T14:40:53.432Z,24.22
2022-09-30T14:43:25.824Z,23.97
2022-09-30T14:45:58.150Z,23.82
2022-09-30T14:48:30.148Z,23.74
2022-09-30T14:51:02.983Z,23.45
2022-09-30T14:53:35.013Z,23.64
2022-09-30T14:56:05.553Z,23.41
2022-09-30T14:58:42.460Z,23.30
2022-09-30T15:01:17.819Z,23.47
2022-09-30T15:03:50.050Z,23.13
2022-09-30T15:06:20.463Z,23.06
2022-09-30T15:08:51.871Z,23.15
2022-09-30T15:11:22.589Z,23.34
2022-09-30T15:26:25.764Z,23.29
2022-09-30T15:28:54.834Z,23.36
2022-09-30T15:31:27.602Z,23.56
2022-09-30T15:34:08.156Z,23.62
2022-09-30T15:36:38.721Z,23.70
2022-09-30T15:39:18.832Z,23.75
2022-09-30T15:41:50.479Z,23.54
2022-09-30T15:44:21.033Z,23.58
2022-09-30T15:47:11.753Z,23.62
2022-09-30T15:49:49.961Z,23.58
2022-09-30T15:52:29.514Z,23.48
2022-09-30T15:54:59.137Z,23.62
2022-09-30T15:57:47.478Z,23.69
2022-09-30T16:00:35.625Z,23.38
2022-09-30T16:03:17.824Z,23.41
2022-09-30T16:05:48.716Z,23.29
2022-09-30T16:08:24.566Z,23.31
2022-09-30T16:10:55.320Z,23.25
2022-09-30T16:13:28.344Z,23.16
2022-09-30T16:15:58.745Z,23.13
2022-09-30T16:18:32.731Z,23.05
2022-09-30T16:21:05.590Z,23.06
2022-09-30T16:23:37.955Z,22.87
2022-09-30T16:26:24.448Z,22.83
2022-09-30T16:28:56.050Z,22.70
2022-09-30T16:31:25.698Z,22.55
2022-09-30T16:33:54.498Z,22.49
2022-09-30T16:36:23.057Z,22.25
2022-09-30T16:38:51.501Z,22.13
2022-09-30T16:41:19.993Z,21.86
2022-09-30T16:43:48.427Z,21.90
2022-09-30T16:46:18.330Z,22.02
2022-09-30T16:48:46.795Z,22.03
2022-09-30T16:51:17.679Z,21.94
2022-09-30T16:53:47.982Z,21.97
2022-09-30T16:56:18.434Z,22.01
2022-09-30T16:58:47.734Z,21.76
2022-09-30T17:01:22.149Z,21.82
2022-09-30T17:03:50.955Z,21.59
2022-09-30T17:06:22.265Z,21.59
2022-09-30T17:08:50.989Z,21.55
2022-09-30T17:11:19.915Z,21.36
2022-09-30T17:13:48.418Z,21.26
2022-09-30T17:16:16.907Z,20.99
2022-09-30T17:18:46.886Z,20.95
2022-09-30T17:21:18.528Z,20.90
2022-09-30T17:23:47.094Z,20.79
2022-09-30T17:26:15.628Z,20.78
2022-09-30T17:28:44.419Z,20.58
2022-09-30T17:31:13.289Z,20.40
2022-09-30T17:33:42.646Z,20.38
2022-09-30T17:36:14.216Z,20.23
2022-09-30T17:38:42.689Z,20.19
2022-09-30T17:41:31.680Z,20.04
2022-09-30T17:44:02.526Z,20.07
2022-09-30T17:46:42.216Z,20.04
2022-09-30T17:49:11.078Z,19.90
2022-09-30T17:51:41.459Z,19.67
2022-09-30T17:54:10.234Z,19.45
2022-09-30T17:56:40.247Z,19.33
2022-09-30T17:59:09.889Z,19.23
2022-09-30T18:01:41.069Z,19.14
2022-09-30T18:04:09.632Z,19.05
2022-09-30T18:06:38.057Z,18.86
2022-09-30T18:09:08.007Z,18.85
2022-09-30T18:11:42.869Z,18.87
2022-09-30T18:14:12.856Z,18.80
2022-09-30T18:16:42.094Z,18.80
2022-09-30T18:19:10.784Z,18.65
2022-09-30T18:21:39.892Z,18.68
2022-09-30T18:24:09.787Z,18.55
2022-09-30T18:26:38.224Z,18.44
2022-09-30T18:29:07.850Z,18.36
2022-09-30T18:31:37.262Z,18.30
2022-09-30T18:34:08.160Z,18.17
2022-09-30T18:36:37.557Z,18.17
2022-09-30T18:39:06.245Z,18.14
2022-09-30T18:41:38.057Z,18.04
2022-09-30T18:44:09.226Z,17.99
2022-09-30T18:46:37.981Z,17.98
2022-09-30T18:49:06.502Z,17.91
2022-09-30T18:51:35.530Z,17.84
2022-09-30T18:54:05.933Z,17.89
2022-09-30T18:56:35.839Z,17.86
2022-09-30T18:59:05.907Z,17.84
2022-09-30T19:01:36.590Z,17.76
2022-09-30T19:04:05.957Z,17.69
2022-09-30T19:06:34.951Z,17.76
2022-09-30T19:09:03.468Z,17.63
2022-09-30T19:11:32.568Z,17.57
2022-09-30T19:14:04.138Z,17.54
2022-09-30T19:16:37.931Z,17.49
2022-09-30T19:19:10.558Z,17.52
2022-09-30T19:21:40.097Z,17.59
2022-09-30T19:24:10.622Z,17.64
2022-09-30T19:26:40.387Z,17.58
2022-09-30T19:29:11.996Z,17.46
2022-09-30T19:31:40.604Z,17.45
2022-09-30T19:34:13.146Z,17.27
2022-09-30T19:36:50.717Z,17.31
2022-09-30T19:39:20.591Z,17.09
2022-09-30T19:41:49.105Z,17.06
2022-09-30T19:44:20.218Z,17.17
2022-09-30T19:46:50.306Z,17.22
2022-09-30T19:49:19.159Z,17.21
2022-09-30T19:51:47.601Z,17.19
2022-09-30T19:54:16.058Z,17.06
2022-09-30T19:56:44.458Z,17.09
2022-09-30T19:59:13.034Z,17.06
2022-09-30T20:01:43.063Z,17.05
2022-09-30T20:04:13.364Z,17.01
2022-09-30T20:06:42.193Z,16.97
2022-09-30T20:09:10.713Z,16.91
2022-09-30T20:11:40.735Z,16.91
2022-09-30T20:14:27.481Z,16.93
2022-09-30T20:16:57.500Z,16.91
2022-09-30T20:19:25.931Z,16.83
2022-09-30T20:21:55.239Z,16.83
2022-09-30T20:24:25.073Z,16.75
2022-09-30T20:26:54.111Z,16.73
2022-09-30T20:29:22.559Z,16.70
2022-09-30T20:31:51.512Z,16.69
2022-09-30T20:34:21.542Z,16.64
2022-09-30T20:36:50.045Z,16.54
2022-09-30T20:39:18.465Z,16.41
2022-09-30T20:41:48.954Z,16.42
2022-09-30T20:44:20.918Z,16.43
2022-09-30T20:46:49.341Z,16.38
2022-09-30T20:49:17.861Z,16.41
2022-09-30T20:51:47.713Z,16.40
2022-09-30T20:54:16.181Z,16.39
2022-09-30T20:57:06.366Z,16.27
2022-09-30T20:59:33.282Z,16.22
2022-09-30T21:02:01.818Z,16.18
2022-09-30T21:04:30.298Z,16.17
2022-09-30T21:07:00.929Z,16.17
2022-09-30T21:09:29.346Z,15.97
2022-09-30T21:11:57.829Z,16.03
2022-09-30T21:14:26.718Z,16.04
2022-09-30T21:16:55.126Z,16.04
2022-09-30T21:19:23.577Z,16.04
2022-09-30T21:21:52.211Z,16.01
2022-09-30T21:24:22.034Z,16.04
2022-09-30T21:26:50.464Z,15.95
2022-09-30T21:29:19.236Z,15.91
2022-09-30T21:31:47.773Z,15.88
2022-09-30T21:34:16.277Z,15.90
2022-09-30T21:36:46.532Z,15.80
2022-09-30T21:39:15.218Z,15.83
2022-09-30T21:41:45.039Z,15.77
2022-09-30T21:44:14.145Z,15.68
2022-09-30T21:46:48.061Z,15.70
2022-09-30T21:49:19.113Z,15.65
2022-09-30T21:51:47.953Z,15.62
2022-09-30T21:54:16.598Z,15.63
2022-09-30T21:56:48.632Z,15.61
2022-09-30T21:59:17.364Z,15.64
2022-09-30T22:01:46.479Z,15.60
2022-09-30T22:04:14.930Z,15.58
2022-09-30T22:06:45.488Z,15.63
2022-09-30T22:09:14.001Z,15.59
2022-09-30T22:11:44.006Z,15.64
2022-09-30T22:14:13.882Z,15.45
2022-09-30T22:16:42.720Z,15.33
2022-09-30T22:19:12.599Z,15.45
2022-09-30T22:21:41.053Z,15.49
2022-09-30T22:24:10.323Z,15.57
2022-09-30T22:26:39.098Z,15.63
2022-09-30T22:29:12.077Z,15.60
2022-09-30T22:31:42.052Z,15.27
2022-09-30T22:34:32.216Z,15.34
2022-09-30T22:37:18.557Z,15.37
2022-09-30T22:39:46.995Z,15.45
2022-09-30T22:42:15.499Z,15.40
2022-09-30T22:44:43.986Z,15.46
2022-09-30T22:47:13.847Z,15.46
2022-09-30T22:49:42.313Z,15.48
2022-09-30T22:52:10.896Z,15.39
2022-09-30T22:54:39.345Z,15.35
2022-09-30T22:57:09.987Z,15.40
2022-09-30T22:59:38.451Z,15.35
2022-09-30T23:02:06.957Z,15.36
2022-09-30T23:04:37.117Z,15.31
2022-09-30T23:07:08.356Z,15.25
2022-09-30T23:09:36.781Z,15.18
2022-09-30T23:12:05.396Z,15.07
2022-09-30T23:14:33.860Z,15.03
2022-09-30T23:17:02.304Z,15.16
2022-09-30T23:19:30.724Z,15.23
2022-09-30T23:22:00.672Z,15.21
2022-09-30T23:24:31.475Z,15.19
2022-09-30T23:27:00.823Z,15.16
2022-09-30T23:29:29.296Z,15.14
2022-09-30T23:31:57.772Z,15.02
2022-09-30T23:34:26.338Z,14.81
2022-09-30T23:36:54.788Z,14.67
2022-09-30T23:39:24.798Z,14.55
2022-09-30T23:41:53.293Z,14.67
2022-09-30T23:44:21.696Z,14.62
2022-09-30T23:47:04.352Z,14.62
2022-09-30T23:49:36.030Z,14.72
2022-09-30T23:52:10.316Z,14.75
2022-09-30T23:54:42.902Z,14.79
2022-09-30T23:57:11.449Z,14.70
2022-09-30T23:59:40.228Z,14.73
